Ashton, MD (20861)

9:15 AM EST on February 12, 2016 (GMT -0500)
Ashton, MD | | Change Station
CLOSE
Current Station
Personal Weather Station
Location: Ashton-Sandy Spring, MD
Elevation: 510 ft
Nearby Weather Stations

Elev 510 ft 39.15 °N, 77.01 °W | Updated 23 seconds ago

Clear
Clear
19.8 °F
Feels Like 20 °F
N
0.0
Wind Variable Wind from SSE
Gusts 0.0 mph

Today
High -- | Low -- °F
--% Chance of Precip.
Yesterday
High -- | Low -- °F
Precip. -- in
Pressure 30.31 in
Visibility 10.0 miles
Clouds Clear
Windchill 20 °F
Dew Point -2 °F
Humidity 38%
Rainfall 0.00 in
Snow Depth Not available.
7:03 AM 5:41 PM
Waxing Crescent, 21% visible
METAR KGAI 121355Z AUTO 00000KT 10SM CLR M07/M16 A3031 RMK AO1
Pressure 30.31 in
Visibility 10.0 miles
Clouds Clear
Windchill 20 °F
Dew Point -2 °F
Humidity 38%
Rainfall 0.00 in
Snow Depth Not available.
7:03 AM 5:41 PM
Waxing Crescent, 21% visible
METAR KGAI 121355Z AUTO 00000KT 10SM CLR M07/M16 A3031 RMK AO1

10-Day Weather Forecast

Almanac

Astronomy

Feb. 12, 2016 Rise Set
Actual Time
Civil Twilight
Nautical Twilight
Astronomical Twilight
Moon
Length of Visible Light
Length of Day
Tomorrow will be .
, % of the Moon is Illuminated

Today's Extremes

State Highs State Lows

Community

WunderPhotos

Upload Photos

1,892,314 photos uploaded!

WunderBlog® & News

Nearby

Air Quality

  Air Quality AQ Index Pollutant
Not available.

Snow Depth

Station Depth Elevation

Earthquake Activity

City Distance Mag. Time & Date
Minimum magnitude displayed is 2.5.

Coastal Water Temperatures

Place Temperature

Stations

Nearby Weather Stations

Station Location Temp. Windchill Dew Point Humidity Wind Precip. Elev Updated Type
                   

Watches & Warnings

There are currently no watches in effect.